San Bernardino, Switzerland
Current Conditions -  °F | °C
As of 10:50 AM on Saturday 25 Oct 2014 (Local Time) from LSZL Reporting Station
Scattered Clouds Scattered Clouds  
Wind Chill: 52°   Ceiling: Unl
Heat Index: 52°   Visibility: 6mi
Dew Point: 43°   Wind: 5mph
Humidity: 71%   Direction: 100°E
Pressure: 30.18"   Gusts: NA
Location:  46.47°N, 9.18°E
Report Text: LSZL 250850Z AUTO 10004KT 060V130 9999NDV SCT048 11/06 Q1022 RMK BLU
Loading
Personal Weather Stations






























Interactive Weather Map
Tropical Storm Tracking
New forecast layout! Learn more

10-Day Weather Forecast

Advertisements
Track Severe Weather on mobile